sensor_id;sensor_type;location;lat;lon;timestamp;P1;P2;P0
60266;PMS5003;46125;61.360;-149.532;2022-10-16T00:01:06;4;4;
60266;PMS5003;46125;61.360;-149.532;2022-10-16T00:03:36;5;3;
60266;PMS5003;46125;61.360;-149.532;2022-10-16T00:06:04;5;3;
60266;PMS5003;46125;61.360;-149.532;2022-10-16T00:08:34;4;3;
60266;PMS5003;46125;61.360;-149.532;2022-10-16T00:11:04;4;3;
60266;PMS5003;46125;61.360;-149.532;2022-10-16T00:13:34;4;1;
60266;PMS5003;46125;61.360;-149.532;2022-10-16T00:16:03;3;3;
60266;PMS5003;46125;61.360;-149.532;2022-10-16T00:18:32;4;3;
60266;PMS5003;46125;61.360;-149.532;2022-10-16T00:21:02;4;2;
60266;PMS5003;46125;61.360;-149.532;2022-10-16T00:23:32;3;3;
60266;PMS5003;46125;61.360;-149.532;2022-10-16T00:26:02;2;1;
60266;PMS5003;46125;61.360;-149.532;2022-10-16T00:28:32;3;3;
60266;PMS5003;46125;61.360;-149.532;2022-10-16T00:31:02;2;2;
60266;PMS5003;46125;61.360;-149.532;2022-10-16T00:33:32;2;2;
60266;PMS5003;46125;61.360;-149.532;2022-10-16T00:36:02;5;3;
60266;PMS5003;46125;61.360;-149.532;2022-10-16T00:38:32;5;2;
60266;PMS5003;46125;61.360;-149.532;2022-10-16T00:41:02;5;2;
60266;PMS5003;46125;61.360;-149.532;2022-10-16T00:43:36;3;3;
60266;PMS5003;46125;61.360;-149.532;2022-10-16T00:46:10;2;2;
60266;PMS5003;46125;61.360;-149.532;2022-10-16T00:48:45;2;2;
60266;PMS5003;46125;61.360;-149.532;2022-10-16T00:51:19;3;2;
60266;PMS5003;46125;61.360;-149.532;2022-10-16T00:53:51;2;2;
60266;PMS5003;46125;61.360;-149.532;2022-10-16T00:56:19;5;4;
60266;PMS5003;46125;61.360;-149.532;2022-10-16T00:58:48;2;2;
60266;PMS5003;46125;61.360;-149.532;2022-10-16T01:01:16;5;2;
60266;PMS5003;46125;61.360;-149.532;2022-10-16T01:03:45;2;2;
60266;PMS5003;46125;61.360;-149.532;2022-10-16T01:06:19;4;3;
60266;PMS5003;46125;61.360;-149.532;2022-10-16T01:09:24;4;2;
60266;PMS5003;46125;61.360;-149.532;2022-10-16T01:12:01;9;7;
60266;PMS5003;46125;61.360;-149.532;2022-10-16T01:14:40;2;1;
60266;PMS5003;46125;61.360;-149.532;2022-10-16T01:17:16;3;2;
60266;PMS5003;46125;61.360;-149.532;2022-10-16T01:19:59;3;3;
60266;PMS5003;46125;61.360;-149.532;2022-10-16T01:22:36;5;2;
60266;PMS5003;46125;61.360;-149.532;2022-10-16T01:25:13;2;2;
60266;PMS5003;46125;61.360;-149.532;2022-10-16T01:27:52;7;3;
60266;PMS5003;46125;61.360;-149.532;2022-10-16T01:30:22;3;3;
60266;PMS5003;46125;61.360;-149.532;2022-10-16T01:32:54;3;3;
60266;PMS5003;46125;61.360;-149.532;2022-10-16T01:35:26;4;2;
60266;PMS5003;46125;61.360;-149.532;2022-10-16T01:37:58;3;3;
60266;PMS5003;46125;61.360;-149.532;2022-10-16T01:40:31;2;2;
60266;PMS5003;46125;61.360;-149.532;2022-10-16T01:43:03;3;3;
60266;PMS5003;46125;61.360;-149.532;2022-10-16T01:45:35;5;3;
60266;PMS5003;46125;61.360;-149.532;2022-10-16T01:48:05;1;1;
60266;PMS5003;46125;61.360;-149.532;2022-10-16T01:50:37;4;3;
60266;PMS5003;46125;61.360;-149.532;2022-10-16T01:53:09;3;2;
60266;PMS5003;46125;61.360;-149.532;2022-10-16T01:55:40;3;2;
60266;PMS5003;46125;61.360;-149.532;2022-10-16T01:58:12;4;3;
60266;PMS5003;46125;61.360;-149.532;2022-10-16T02:00:42;5;3;
60266;PMS5003;46125;61.360;-149.532;2022-10-16T02:03:14;5;3;
60266;PMS5003;46125;61.360;-149.532;2022-10-16T02:05:46;9;5;
60266;PMS5003;46125;61.360;-149.532;2022-10-16T02:08:18;3;3;
60266;PMS5003;46125;61.360;-149.532;2022-10-16T02:10:46;3;3;
60266;PMS5003;46125;61.360;-149.532;2022-10-16T02:13:16;6;6;
60266;PMS5003;46125;61.360;-149.532;2022-10-16T02:15:48;18;11;
60266;PMS5003;46125;61.360;-149.532;2022-10-16T02:18:17;28;18;
60266;PMS5003;46125;61.360;-149.532;2022-10-16T02:20:48;29;21;
60266;PMS5003;46125;61.360;-149.532;2022-10-16T02:23:24;69;49;
60266;PMS5003;46125;61.360;-149.532;2022-10-16T02:26:00;29;22;
60266;PMS5003;46125;61.360;-149.532;2022-10-16T02:28:33;16;11;
60266;PMS5003;46125;61.360;-149.532;2022-10-16T02:31:07;5;5;
60266;PMS5003;46125;61.360;-149.532;2022-10-16T02:33:40;8;7;
60266;PMS5003;46125;61.360;-149.532;2022-10-16T02:36:10;5;4;
60266;PMS5003;46125;61.360;-149.532;2022-10-16T02:38:40;7;5;
60266;PMS5003;46125;61.360;-149.532;2022-10-16T02:41:09;23;17;
60266;PMS5003;46125;61.360;-149.532;2022-10-16T02:43:38;29;18;
60266;PMS5003;46125;61.360;-149.532;2022-10-16T02:46:07;8;7;
60266;PMS5003;46125;61.360;-149.532;2022-10-16T02:48:35;7;7;
60266;PMS5003;46125;61.360;-149.532;2022-10-16T02:51:04;9;7;
60266;PMS5003;46125;61.360;-149.532;2022-10-16T02:53:32;5;5;
60266;PMS5003;46125;61.360;-149.532;2022-10-16T02:56:01;4;4;
60266;PMS5003;46125;61.360;-149.532;2022-10-16T02:58:29;5;4;
60266;PMS5003;46125;61.360;-149.532;2022-10-16T03:00:58;3;3;
60266;PMS5003;46125;61.360;-149.532;2022-10-16T03:03:27;4;3;
60266;PMS5003;46125;61.360;-149.532;2022-10-16T03:05:55;3;2;
60266;PMS5003;46125;61.360;-149.532;2022-10-16T03:08:24;4;2;
60266;PMS5003;46125;61.360;-149.532;2022-10-16T03:10:52;1;1;
60266;PMS5003;46125;61.360;-149.532;2022-10-16T03:13:21;7;4;
60266;PMS5003;46125;61.360;-149.532;2022-10-16T03:15:49;4;4;
60266;PMS5003;46125;61.360;-149.532;2022-10-16T03:18:18;6;4;
60266;PMS5003;46125;61.360;-149.532;2022-10-16T03:20:47;2;2;
60266;PMS5003;46125;61.360;-149.532;2022-10-16T03:23:15;2;2;
60266;PMS5003;46125;61.360;-149.532;2022-10-16T03:25:44;3;1;
60266;PMS5003;46125;61.360;-149.532;2022-10-16T03:28:12;4;3;
60266;PMS5003;46125;61.360;-149.532;2022-10-16T03:30:42;4;4;
60266;PMS5003;46125;61.360;-149.532;2022-10-16T03:33:11;4;4;
60266;PMS5003;46125;61.360;-149.532;2022-10-16T03:35:39;5;5;
60266;PMS5003;46125;61.360;-149.532;2022-10-16T03:38:08;6;6;
60266;PMS5003;46125;61.360;-149.532;2022-10-16T03:40:36;5;4;
60266;PMS5003;46125;61.360;-149.532;2022-10-16T03:43:05;6;5;
60266;PMS5003;46125;61.360;-149.532;2022-10-16T03:45:34;7;6;
60266;PMS5003;46125;61.360;-149.532;2022-10-16T03:48:03;9;7;
60266;PMS5003;46125;61.360;-149.532;2022-10-16T03:50:32;9;9;
60266;PMS5003;46125;61.360;-149.532;2022-10-16T03:53:00;9;7;
60266;PMS5003;46125;61.360;-149.532;2022-10-16T03:55:29;6;6;
60266;PMS5003;46125;61.360;-149.532;2022-10-16T03:57:58;6;6;
60266;PMS5003;46125;61.360;-149.532;2022-10-16T04:00:26;10;10;
60266;PMS5003;46125;61.360;-149.532;2022-10-16T04:02:55;13;11;
60266;PMS5003;46125;61.360;-149.532;2022-10-16T04:05:24;9;8;
60266;PMS5003;46125;61.360;-149.532;2022-10-16T04:07:52;13;11;
60266;PMS5003;46125;61.360;-149.532;2022-10-16T04:10:21;11;10;
60266;PMS5003;46125;61.360;-149.532;2022-10-16T04:12:50;13;11;
60266;PMS5003;46125;61.360;-149.532;2022-10-16T04:15:18;15;10;
60266;PMS5003;46125;61.360;-149.532;2022-10-16T04:17:47;11;10;
60266;PMS5003;46125;61.360;-149.532;2022-10-16T04:20:15;11;9;
60266;PMS5003;46125;61.360;-149.532;2022-10-16T04:22:45;11;10;
60266;PMS5003;46125;61.360;-149.532;2022-10-16T04:25:13;8;8;
60266;PMS5003;46125;61.360;-149.532;2022-10-16T04:27:42;9;9;
60266;PMS5003;46125;61.360;-149.532;2022-10-16T04:30:11;6;6;
60266;PMS5003;46125;61.360;-149.532;2022-10-16T04:32:39;7;7;
60266;PMS5003;46125;61.360;-149.532;2022-10-16T04:35:08;5;4;
60266;PMS5003;46125;61.360;-149.532;2022-10-16T04:37:37;9;5;
60266;PMS5003;46125;61.360;-149.532;2022-10-16T04:40:06;4;4;
60266;PMS5003;46125;61.360;-149.532;2022-10-16T04:42:35;6;5;
60266;PMS5003;46125;61.360;-149.532;2022-10-16T04:45:04;8;6;
60266;PMS5003;46125;61.360;-149.532;2022-10-16T04:47:34;7;6;
60266;PMS5003;46125;61.360;-149.532;2022-10-16T04:50:04;6;6;
60266;PMS5003;46125;61.360;-149.532;2022-10-16T04:52:33;6;6;
60266;PMS5003;46125;61.360;-149.532;2022-10-16T04:55:02;7;6;
60266;PMS5003;46125;61.360;-149.532;2022-10-16T04:57:31;3;3;
60266;PMS5003;46125;61.360;-149.532;2022-10-16T05:00:00;4;4;
60266;PMS5003;46125;61.360;-149.532;2022-10-16T05:02:29;9;5;
60266;PMS5003;46125;61.360;-149.532;2022-10-16T05:04:58;5;5;
60266;PMS5003;46125;61.360;-149.532;2022-10-16T05:07:26;6;5;
60266;PMS5003;46125;61.360;-149.532;2022-10-16T05:09:55;5;4;
60266;PMS5003;46125;61.360;-149.532;2022-10-16T05:12:23;7;7;
60266;PMS5003;46125;61.360;-149.532;2022-10-16T05:14:51;21;19;
60266;PMS5003;46125;61.360;-149.532;2022-10-16T05:17:20;12;11;
60266;PMS5003;46125;61.360;-149.532;2022-10-16T05:19:49;8;7;
60266;PMS5003;46125;61.360;-149.532;2022-10-16T05:22:17;4;4;
60266;PMS5003;46125;61.360;-149.532;2022-10-16T05:24:46;6;5;
60266;PMS5003;46125;61.360;-149.532;2022-10-16T05:27:14;4;3;
60266;PMS5003;46125;61.360;-149.532;2022-10-16T05:29:43;5;5;
60266;PMS5003;46125;61.360;-149.532;2022-10-16T05:32:12;11;10;
60266;PMS5003;46125;61.360;-149.532;2022-10-16T05:34:42;8;6;
60266;PMS5003;46125;61.360;-149.532;2022-10-16T05:37:11;6;6;
60266;PMS5003;46125;61.360;-149.532;2022-10-16T05:39:39;7;6;
60266;PMS5003;46125;61.360;-149.532;2022-10-16T05:42:07;17;12;
60266;PMS5003;46125;61.360;-149.532;2022-10-16T05:44:36;14;13;
60266;PMS5003;46125;61.360;-149.532;2022-10-16T05:47:05;15;12;
60266;PMS5003;46125;61.360;-149.532;2022-10-16T05:49:34;10;8;
60266;PMS5003;46125;61.360;-149.532;2022-10-16T05:52:03;16;15;
60266;PMS5003;46125;61.360;-149.532;2022-10-16T05:54:32;4;4;
60266;PMS5003;46125;61.360;-149.532;2022-10-16T05:57:00;17;13;
60266;PMS5003;46125;61.360;-149.532;2022-10-16T05:59:28;6;5;
60266;PMS5003;46125;61.360;-149.532;2022-10-16T06:01:56;39;37;
60266;PMS5003;46125;61.360;-149.532;2022-10-16T06:04:25;23;20;
60266;PMS5003;46125;61.360;-149.532;2022-10-16T06:06:53;15;15;
60266;PMS5003;46125;61.360;-149.532;2022-10-16T06:09:25;13;11;
60266;PMS5003;46125;61.360;-149.532;2022-10-16T06:11:53;10;10;
60266;PMS5003;46125;61.360;-149.532;2022-10-16T06:14:22;9;9;
60266;PMS5003;46125;61.360;-149.532;2022-10-16T06:16:50;13;9;
60266;PMS5003;46125;61.360;-149.532;2022-10-16T06:19:19;12;8;
60266;PMS5003;46125;61.360;-149.532;2022-10-16T06:21:47;10;7;
60266;PMS5003;46125;61.360;-149.532;2022-10-16T06:24:15;10;8;
60266;PMS5003;46125;61.360;-149.532;2022-10-16T06:26:44;7;6;
60266;PMS5003;46125;61.360;-149.532;2022-10-16T06:29:12;8;8;
60266;PMS5003;46125;61.360;-149.532;2022-10-16T06:31:41;9;8;
60266;PMS5003;46125;61.360;-149.532;2022-10-16T06:34:10;11;10;
60266;PMS5003;46125;61.360;-149.532;2022-10-16T06:36:38;14;10;
60266;PMS5003;46125;61.360;-149.532;2022-10-16T06:39:07;9;6;
60266;PMS5003;46125;61.360;-149.532;2022-10-16T06:41:35;6;6;
60266;PMS5003;46125;61.360;-149.532;2022-10-16T06:44:05;6;5;
60266;PMS5003;46125;61.360;-149.532;2022-10-16T06:46:34;3;3;
60266;PMS5003;46125;61.360;-149.532;2022-10-16T06:49:03;6;5;
60266;PMS5003;46125;61.360;-149.532;2022-10-16T06:51:32;6;6;
60266;PMS5003;46125;61.360;-149.532;2022-10-16T06:54:01;6;5;
60266;PMS5003;46125;61.360;-149.532;2022-10-16T06:56:29;8;7;
60266;PMS5003;46125;61.360;-149.532;2022-10-16T06:58:59;10;8;
60266;PMS5003;46125;61.360;-149.532;2022-10-16T07:01:27;9;5;
60266;PMS5003;46125;61.360;-149.532;2022-10-16T07:03:57;5;5;
60266;PMS5003;46125;61.360;-149.532;2022-10-16T07:06:25;5;5;
60266;PMS5003;46125;61.360;-149.532;2022-10-16T07:08:57;5;5;
60266;PMS5003;46125;61.360;-149.532;2022-10-16T07:11:28;6;5;
60266;PMS5003;46125;61.360;-149.532;2022-10-16T07:13:56;9;8;
60266;PMS5003;46125;61.360;-149.532;2022-10-16T07:16:26;5;5;
60266;PMS5003;46125;61.360;-149.532;2022-10-16T07:18:56;5;5;
60266;PMS5003;46125;61.360;-149.532;2022-10-16T07:21:26;5;5;
60266;PMS5003;46125;61.360;-149.532;2022-10-16T07:23:56;6;4;
60266;PMS5003;46125;61.360;-149.532;2022-10-16T07:26:27;4;4;
60266;PMS5003;46125;61.360;-149.532;2022-10-16T07:28:59;10;6;
60266;PMS5003;46125;61.360;-149.532;2022-10-16T07:31:27;8;4;
60266;PMS5003;46125;61.360;-149.532;2022-10-16T07:33:57;9;6;
60266;PMS5003;46125;61.360;-149.532;2022-10-16T07:36:25;7;5;
60266;PMS5003;46125;61.360;-149.532;2022-10-16T07:38:54;6;6;
60266;PMS5003;46125;61.360;-149.532;2022-10-16T07:41:23;10;7;
60266;PMS5003;46125;61.360;-149.532;2022-10-16T07:43:52;7;7;
60266;PMS5003;46125;61.360;-149.532;2022-10-16T07:46:21;5;5;
60266;PMS5003;46125;61.360;-149.532;2022-10-16T07:48:50;9;5;
60266;PMS5003;46125;61.360;-149.532;2022-10-16T07:51:19;5;5;
60266;PMS5003;46125;61.360;-149.532;2022-10-16T07:53:50;6;6;
60266;PMS5003;46125;61.360;-149.532;2022-10-16T07:56:19;5;5;
60266;PMS5003;46125;61.360;-149.532;2022-10-16T07:58:49;6;5;
60266;PMS5003;46125;61.360;-149.532;2022-10-16T08:01:18;5;5;
60266;PMS5003;46125;61.360;-149.532;2022-10-16T08:03:48;5;5;
60266;PMS5003;46125;61.360;-149.532;2022-10-16T08:06:18;8;6;
60266;PMS5003;46125;61.360;-149.532;2022-10-16T08:08:47;5;5;
60266;PMS5003;46125;61.360;-149.532;2022-10-16T08:11:15;6;4;
60266;PMS5003;46125;61.360;-149.532;2022-10-16T08:13:44;8;8;
60266;PMS5003;46125;61.360;-149.532;2022-10-16T08:16:12;6;5;
60266;PMS5003;46125;61.360;-149.532;2022-10-16T08:18:41;8;7;
60266;PMS5003;46125;61.360;-149.532;2022-10-16T08:21:12;11;7;
60266;PMS5003;46125;61.360;-149.532;2022-10-16T08:23:42;11;9;
60266;PMS5003;46125;61.360;-149.532;2022-10-16T08:26:10;9;8;
60266;PMS5003;46125;61.360;-149.532;2022-10-16T08:28:39;12;11;
60266;PMS5003;46125;61.360;-149.532;2022-10-16T08:31:08;11;11;
60266;PMS5003;46125;61.360;-149.532;2022-10-16T08:33:38;16;12;
60266;PMS5003;46125;61.360;-149.532;2022-10-16T08:36:09;17;13;
60266;PMS5003;46125;61.360;-149.532;2022-10-16T08:38:38;19;14;
60266;PMS5003;46125;61.360;-149.532;2022-10-16T08:41:21;13;13;
60266;PMS5003;46125;61.360;-149.532;2022-10-16T08:42:47;13;13;
60266;PMS5003;46125;61.360;-149.532;2022-10-16T08:45:32;17;15;
60266;PMS5003;46125;61.360;-149.532;2022-10-16T08:48:14;17;16;
60266;PMS5003;46125;61.360;-149.532;2022-10-16T08:50:48;13;13;
60266;PMS5003;46125;61.360;-149.532;2022-10-16T08:53:19;15;12;
60266;PMS5003;46125;61.360;-149.532;2022-10-16T08:55:53;14;12;
60266;PMS5003;46125;61.360;-149.532;2022-10-16T08:58:22;16;13;
60266;PMS5003;46125;61.360;-149.532;2022-10-16T09:00:54;15;14;
60266;PMS5003;46125;61.360;-149.532;2022-10-16T09:03:30;15;11;
60266;PMS5003;46125;61.360;-149.532;2022-10-16T09:06:19;12;12;
60266;PMS5003;46125;61.360;-149.532;2022-10-16T09:09:02;13;12;
60266;PMS5003;46125;61.360;-149.532;2022-10-16T09:11:46;12;9;
60266;PMS5003;46125;61.360;-149.532;2022-10-16T09:14:27;14;13;
60266;PMS5003;46125;61.360;-149.532;2022-10-16T09:17:42;14;11;
60266;PMS5003;46125;61.360;-149.532;2022-10-16T09:20:23;13;11;
60266;PMS5003;46125;61.360;-149.532;2022-10-16T09:23:07;12;12;
60266;PMS5003;46125;61.360;-149.532;2022-10-16T09:25:43;16;15;
60266;PMS5003;46125;61.360;-149.532;2022-10-16T09:28:15;18;15;
60266;PMS5003;46125;61.360;-149.532;2022-10-16T09:30:44;16;13;
60266;PMS5003;46125;61.360;-149.532;2022-10-16T09:33:13;14;12;
60266;PMS5003;46125;61.360;-149.532;2022-10-16T09:35:44;13;8;
60266;PMS5003;46125;61.360;-149.532;2022-10-16T09:38:25;6;4;
60266;PMS5003;46125;61.360;-149.532;2022-10-16T09:40:55;6;5;
60266;PMS5003;46125;61.360;-149.532;2022-10-16T09:43:24;7;6;
60266;PMS5003;46125;61.360;-149.532;2022-10-16T09:45:59;4;4;
60266;PMS5003;46125;61.360;-149.532;2022-10-16T09:48:31;4;4;
60266;PMS5003;46125;61.360;-149.532;2022-10-16T09:51:04;5;5;
60266;PMS5003;46125;61.360;-149.532;2022-10-16T09:53:43;5;5;
60266;PMS5003;46125;61.360;-149.532;2022-10-16T09:56:21;6;5;
60266;PMS5003;46125;61.360;-149.532;2022-10-16T09:58:52;5;5;
60266;PMS5003;46125;61.360;-149.532;2022-10-16T10:01:24;7;6;
60266;PMS5003;46125;61.360;-149.532;2022-10-16T10:03:57;6;6;
60266;PMS5003;46125;61.360;-149.532;2022-10-16T10:06:27;7;6;
60266;PMS5003;46125;61.360;-149.532;2022-10-16T10:08:58;6;6;
60266;PMS5003;46125;61.360;-149.532;2022-10-16T10:11:38;7;7;
60266;PMS5003;46125;61.360;-149.532;2022-10-16T10:14:10;8;7;
60266;PMS5003;46125;61.360;-149.532;2022-10-16T10:16:45;6;5;
60266;PMS5003;46125;61.360;-149.532;2022-10-16T10:19:15;8;7;
60266;PMS5003;46125;61.360;-149.532;2022-10-16T10:21:45;6;6;
60266;PMS5003;46125;61.360;-149.532;2022-10-16T10:24:15;8;6;
60266;PMS5003;46125;61.360;-149.532;2022-10-16T10:26:49;11;9;
60266;PMS5003;46125;61.360;-149.532;2022-10-16T10:29:30;5;5;
60266;PMS5003;46125;61.360;-149.532;2022-10-16T10:32:12;6;5;
60266;PMS5003;46125;61.360;-149.532;2022-10-16T10:34:52;7;6;
60266;PMS5003;46125;61.360;-149.532;2022-10-16T10:37:37;8;7;
60266;PMS5003;46125;61.360;-149.532;2022-10-16T10:40:28;7;6;
60266;PMS5003;46125;61.360;-149.532;2022-10-16T10:43:04;9;5;
60266;PMS5003;46125;61.360;-149.532;2022-10-16T10:45:46;8;8;
60266;PMS5003;46125;61.360;-149.532;2022-10-16T10:48:21;7;6;
60266;PMS5003;46125;61.360;-149.532;2022-10-16T10:51:14;4;4;
60266;PMS5003;46125;61.360;-149.532;2022-10-16T10:53:50;7;6;
60266;PMS5003;46125;61.360;-149.532;2022-10-16T10:56:38;7;7;
60266;PMS5003;46125;61.360;-149.532;2022-10-16T10:59:21;9;5;
60266;PMS5003;46125;61.360;-149.532;2022-10-16T11:02:21;9;7;
60266;PMS5003;46125;61.360;-149.532;2022-10-16T11:05:00;5;5;
60266;PMS5003;46125;61.360;-149.532;2022-10-16T11:07:43;6;6;
60266;PMS5003;46125;61.360;-149.532;2022-10-16T11:10:18;7;6;
60266;PMS5003;46125;61.360;-149.532;2022-10-16T11:12:51;10;8;
60266;PMS5003;46125;61.360;-149.532;2022-10-16T11:15:25;8;6;
60266;PMS5003;46125;61.360;-149.532;2022-10-16T11:18:00;8;6;
60266;PMS5003;46125;61.360;-149.532;2022-10-16T11:20:37;6;5;
60266;PMS5003;46125;61.360;-149.532;2022-10-16T11:23:10;7;5;
60266;PMS5003;46125;61.360;-149.532;2022-10-16T11:25:43;9;8;
60266;PMS5003;46125;61.360;-149.532;2022-10-16T11:28:14;7;7;
60266;PMS5003;46125;61.360;-149.532;2022-10-16T11:30:47;8;7;
60266;PMS5003;46125;61.360;-149.532;2022-10-16T11:33:24;8;5;
60266;PMS5003;46125;61.360;-149.532;2022-10-16T11:36:00;7;7;
60266;PMS5003;46125;61.360;-149.532;2022-10-16T11:38:37;9;8;
60266;PMS5003;46125;61.360;-149.532;2022-10-16T11:41:17;9;8;
60266;PMS5003;46125;61.360;-149.532;2022-10-16T11:43:54;8;7;
60266;PMS5003;46125;61.360;-149.532;2022-10-16T11:46:30;6;6;
60266;PMS5003;46125;61.360;-149.532;2022-10-16T11:49:06;7;7;
60266;PMS5003;46125;61.360;-149.532;2022-10-16T11:51:42;9;6;
60266;PMS5003;46125;61.360;-149.532;2022-10-16T11:54:18;6;5;
60266;PMS5003;46125;61.360;-149.532;2022-10-16T11:56:57;7;7;
60266;PMS5003;46125;61.360;-149.532;2022-10-16T11:59:33;7;6;
60266;PMS5003;46125;61.360;-149.532;2022-10-16T12:02:17;9;7;
60266;PMS5003;46125;61.360;-149.532;2022-10-16T12:05:00;7;5;
60266;PMS5003;46125;61.360;-149.532;2022-10-16T12:07:41;7;4;
60266;PMS5003;46125;61.360;-149.532;2022-10-16T12:10:19;6;4;
60266;PMS5003;46125;61.360;-149.532;2022-10-16T12:12:50;6;6;
60266;PMS5003;46125;61.360;-149.532;2022-10-16T12:15:20;8;5;
60266;PMS5003;46125;61.360;-149.532;2022-10-16T12:17:51;12;11;
60266;PMS5003;46125;61.360;-149.532;2022-10-16T12:20:23;7;4;
60266;PMS5003;46125;61.360;-149.532;2022-10-16T12:22:55;8;5;
60266;PMS5003;46125;61.360;-149.532;2022-10-16T12:25:26;8;6;
60266;PMS5003;46125;61.360;-149.532;2022-10-16T12:27:57;8;6;
60266;PMS5003;46125;61.360;-149.532;2022-10-16T12:30:30;6;5;
60266;PMS5003;46125;61.360;-149.532;2022-10-16T12:33:02;5;5;
60266;PMS5003;46125;61.360;-149.532;2022-10-16T12:35:33;6;5;
60266;PMS5003;46125;61.360;-149.532;2022-10-16T12:38:14;8;5;
60266;PMS5003;46125;61.360;-149.532;2022-10-16T12:40:46;5;5;
60266;PMS5003;46125;61.360;-149.532;2022-10-16T12:43:26;6;5;
60266;PMS5003;46125;61.360;-149.532;2022-10-16T12:46:19;9;5;
60266;PMS5003;46125;61.360;-149.532;2022-10-16T12:48:51;8;6;
60266;PMS5003;46125;61.360;-149.532;2022-10-16T12:51:34;8;6;
60266;PMS5003;46125;61.360;-149.532;2022-10-16T12:54:04;7;6;
60266;PMS5003;46125;61.360;-149.532;2022-10-16T12:56:44;8;7;
60266;PMS5003;46125;61.360;-149.532;2022-10-16T12:59:24;9;8;
60266;PMS5003;46125;61.360;-149.532;2022-10-16T13:02:05;9;8;
60266;PMS5003;46125;61.360;-149.532;2022-10-16T13:04:55;10;6;
60266;PMS5003;46125;61.360;-149.532;2022-10-16T13:07:41;13;10;
60266;PMS5003;46125;61.360;-149.532;2022-10-16T13:10:23;10;8;
60266;PMS5003;46125;61.360;-149.532;2022-10-16T13:13:00;6;6;
60266;PMS5003;46125;61.360;-149.532;2022-10-16T13:15:41;10;7;
60266;PMS5003;46125;61.360;-149.532;2022-10-16T13:18:26;12;9;
60266;PMS5003;46125;61.360;-149.532;2022-10-16T13:21:08;12;9;
60266;PMS5003;46125;61.360;-149.532;2022-10-16T13:23:48;7;7;
60266;PMS5003;46125;61.360;-149.532;2022-10-16T13:26:29;7;6;
60266;PMS5003;46125;61.360;-149.532;2022-10-16T13:29:03;7;6;
60266;PMS5003;46125;61.360;-149.532;2022-10-16T13:31:32;6;6;
60266;PMS5003;46125;61.360;-149.532;2022-10-16T13:34:01;11;8;
60266;PMS5003;46125;61.360;-149.532;2022-10-16T13:36:33;7;7;
60266;PMS5003;46125;61.360;-149.532;2022-10-16T13:39:11;6;6;
60266;PMS5003;46125;61.360;-149.532;2022-10-16T13:41:42;8;7;
60266;PMS5003;46125;61.360;-149.532;2022-10-16T13:44:13;6;6;
60266;PMS5003;46125;61.360;-149.532;2022-10-16T13:46:45;7;6;
60266;PMS5003;46125;61.360;-149.532;2022-10-16T13:49:24;8;8;
60266;PMS5003;46125;61.360;-149.532;2022-10-16T13:51:54;7;6;
60266;PMS5003;46125;61.360;-149.532;2022-10-16T13:54:25;6;6;
60266;PMS5003;46125;61.360;-149.532;2022-10-16T13:56:55;8;6;
60266;PMS5003;46125;61.360;-149.532;2022-10-16T13:59:25;11;9;
60266;PMS5003;46125;61.360;-149.532;2022-10-16T14:02:00;7;5;
60266;PMS5003;46125;61.360;-149.532;2022-10-16T14:04:41;6;6;
60266;PMS5003;46125;61.360;-149.532;2022-10-16T14:07:12;7;7;
60266;PMS5003;46125;61.360;-149.532;2022-10-16T14:09:41;10;6;
60266;PMS5003;46125;61.360;-149.532;2022-10-16T14:12:14;5;5;
60266;PMS5003;46125;61.360;-149.532;2022-10-16T14:14:44;8;7;
60266;PMS5003;46125;61.360;-149.532;2022-10-16T14:17:14;6;6;
60266;PMS5003;46125;61.360;-149.532;2022-10-16T14:19:46;6;6;
60266;PMS5003;46125;61.360;-149.532;2022-10-16T14:22:21;5;4;
60266;PMS5003;46125;61.360;-149.532;2022-10-16T14:24:55;7;5;
60266;PMS5003;46125;61.360;-149.532;2022-10-16T14:27:26;6;4;
60266;PMS5003;46125;61.360;-149.532;2022-10-16T14:30:14;5;4;
60266;PMS5003;46125;61.360;-149.532;2022-10-16T14:32:53;6;6;
60266;PMS5003;46125;61.360;-149.532;2022-10-16T14:35:24;6;4;
60266;PMS5003;46125;61.360;-149.532;2022-10-16T14:37:54;5;5;
60266;PMS5003;46125;61.360;-149.532;2022-10-16T14:40:25;6;6;
60266;PMS5003;46125;61.360;-149.532;2022-10-16T14:42:54;6;6;
60266;PMS5003;46125;61.360;-149.532;2022-10-16T14:45:24;7;6;
60266;PMS5003;46125;61.360;-149.532;2022-10-16T14:47:57;9;8;
60266;PMS5003;46125;61.360;-149.532;2022-10-16T14:50:27;16;11;
60266;PMS5003;46125;61.360;-149.532;2022-10-16T14:52:55;14;12;
60266;PMS5003;46125;61.360;-149.532;2022-10-16T14:55:25;13;9;
60266;PMS5003;46125;61.360;-149.532;2022-10-16T14:57:53;17;14;
60266;PMS5003;46125;61.360;-149.532;2022-10-16T15:00:23;12;12;
60266;PMS5003;46125;61.360;-149.532;2022-10-16T15:02:51;11;11;
60266;PMS5003;46125;61.360;-149.532;2022-10-16T15:05:21;12;9;
60266;PMS5003;46125;61.360;-149.532;2022-10-16T15:07:51;17;11;
60266;PMS5003;46125;61.360;-149.532;2022-10-16T15:10:20;8;7;
60266;PMS5003;46125;61.360;-149.532;2022-10-16T15:12:50;10;8;
60266;PMS5003;46125;61.360;-149.532;2022-10-16T15:15:26;13;12;
60266;PMS5003;46125;61.360;-149.532;2022-10-16T15:18:01;17;12;
60266;PMS5003;46125;61.360;-149.532;2022-10-16T15:20:31;11;8;
60266;PMS5003;46125;61.360;-149.532;2022-10-16T15:23:01;20;12;
60266;PMS5003;46125;61.360;-149.532;2022-10-16T15:25:32;13;10;
60266;PMS5003;46125;61.360;-149.532;2022-10-16T15:28:04;18;13;
60266;PMS5003;46125;61.360;-149.532;2022-10-16T15:30:33;17;14;
60266;PMS5003;46125;61.360;-149.532;2022-10-16T15:33:02;9;9;
60266;PMS5003;46125;61.360;-149.532;2022-10-16T15:35:32;18;11;
60266;PMS5003;46125;61.360;-149.532;2022-10-16T15:38:00;14;11;
60266;PMS5003;46125;61.360;-149.532;2022-10-16T15:40:29;20;12;
60266;PMS5003;46125;61.360;-149.532;2022-10-16T15:42:58;16;14;
60266;PMS5003;46125;61.360;-149.532;2022-10-16T15:45:26;9;9;
60266;PMS5003;46125;61.360;-149.532;2022-10-16T15:47:55;35;18;
60266;PMS5003;46125;61.360;-149.532;2022-10-16T15:50:23;15;12;
60266;PMS5003;46125;61.360;-149.532;2022-10-16T15:52:52;29;20;
60266;PMS5003;46125;61.360;-149.532;2022-10-16T15:55:21;21;15;
60266;PMS5003;46125;61.360;-149.532;2022-10-16T15:57:49;22;16;
60266;PMS5003;46125;61.360;-149.532;2022-10-16T16:00:18;45;28;
60266;PMS5003;46125;61.360;-149.532;2022-10-16T16:02:50;23;17;
60266;PMS5003;46125;61.360;-149.532;2022-10-16T16:05:21;20;16;
60266;PMS5003;46125;61.360;-149.532;2022-10-16T16:07:50;20;14;
60266;PMS5003;46125;61.360;-149.532;2022-10-16T16:10:18;27;16;
60266;PMS5003;46125;61.360;-149.532;2022-10-16T16:12:47;14;13;
60266;PMS5003;46125;61.360;-149.532;2022-10-16T16:15:16;16;13;
60266;PMS5003;46125;61.360;-149.532;2022-10-16T16:17:46;15;14;
60266;PMS5003;46125;61.360;-149.532;2022-10-16T16:20:15;11;10;
60266;PMS5003;46125;61.360;-149.532;2022-10-16T16:22:44;10;8;
60266;PMS5003;46125;61.360;-149.532;2022-10-16T16:25:12;8;8;